createdAt,value
2024-04-19T00:00:51.442Z,60.23
2024-04-19T00:03:18.428Z,60.24
2024-04-19T00:05:46.242Z,60.40
2024-04-19T00:08:32.174Z,60.29
2024-04-19T00:11:00.529Z,60.57
2024-04-19T00:13:30.423Z,60.45
2024-04-19T00:16:00.423Z,60.43
2024-04-19T00:18:28.196Z,60.46
2024-04-19T00:20:56.418Z,60.48
2024-04-19T00:23:23.894Z,60.42
2024-04-19T00:25:50.829Z,60.82
2024-04-19T00:28:17.862Z,60.51
2024-04-19T00:30:47.447Z,60.38
2024-04-19T00:33:14.966Z,60.20
2024-04-19T00:35:41.975Z,60.24
2024-04-19T00:38:09.494Z,60.18
2024-04-19T00:40:36.453Z,60.20
2024-04-19T00:43:05.417Z,60.28
2024-04-19T00:45:37.232Z,60.43
2024-04-19T00:48:12.963Z,60.39
2024-04-19T00:50:55.273Z,60.46
2024-04-19T00:53:28.043Z,60.34
2024-04-19T00:55:57.482Z,60.41
2024-04-19T00:58:25.697Z,60.40
2024-04-19T01:00:53.145Z,60.02
2024-04-19T01:03:22.999Z,60.42
2024-04-19T01:05:49.957Z,60.34
2024-04-19T01:08:26.715Z,60.52
2024-04-19T01:10:54.243Z,60.51
2024-04-19T01:13:21.629Z,60.51
2024-04-19T01:15:49.502Z,60.37
2024-04-19T01:18:17.054Z,60.60
2024-04-19T01:20:47.110Z,60.38
2024-04-19T01:23:14.967Z,60.48
2024-04-19T01:25:44.147Z,60.47
2024-04-19T01:28:14.403Z,60.31
2024-04-19T01:30:46.064Z,60.53
2024-04-19T01:33:13.622Z,60.50
2024-04-19T01:35:40.824Z,60.59
2024-04-19T01:38:07.648Z,60.47
2024-04-19T01:40:34.689Z,60.45
2024-04-19T01:43:01.619Z,60.55
2024-04-19T01:45:31.485Z,60.56
2024-04-19T01:48:00.900Z,60.26
2024-04-19T01:50:27.960Z,60.38
2024-04-19T01:52:55.177Z,60.26
2024-04-19T01:55:21.937Z,60.36
2024-04-19T01:57:48.735Z,60.37
2024-04-19T02:00:15.942Z,60.46
2024-04-19T02:02:45.431Z,60.57
2024-04-19T02:05:12.986Z,60.62
2024-04-19T02:07:39.839Z,60.69
2024-04-19T02:10:08.692Z,60.75
2024-04-19T02:12:35.498Z,60.83
2024-04-19T02:15:02.355Z,60.51
2024-04-19T02:17:29.446Z,60.65
2024-04-19T02:19:58.986Z,60.75
2024-04-19T02:22:25.818Z,60.94
2024-04-19T02:24:52.691Z,60.62
2024-04-19T02:27:39.627Z,60.38
2024-04-19T02:30:26.451Z,60.44
2024-04-19T02:32:53.403Z,60.30
2024-04-19T02:35:23.099Z,60.27
2024-04-19T02:37:49.736Z,60.07
2024-04-19T02:40:16.779Z,60.31
2024-04-19T02:42:43.831Z,60.40
2024-04-19T02:45:11.158Z,60.05
2024-04-19T02:47:38.061Z,60.27
2024-04-19T02:50:05.433Z,60.11
2024-04-19T02:52:34.852Z,60.19
2024-04-19T02:55:03.770Z,59.99
2024-04-19T02:57:32.458Z,59.87
2024-04-19T02:59:59.489Z,59.81
2024-04-19T03:02:26.262Z,59.82
2024-04-19T03:04:53.043Z,59.73
2024-04-19T03:07:19.891Z,59.84
2024-04-19T03:09:50.460Z,59.93
2024-04-19T03:12:17.804Z,59.78
2024-04-19T03:14:47.781Z,59.82
2024-04-19T03:17:14.708Z,59.57
2024-04-19T03:19:44.651Z,59.80
2024-04-19T03:22:11.426Z,59.69
2024-04-19T03:24:38.333Z,59.93
2024-04-19T03:27:08.072Z,59.80
2024-04-19T03:29:55.563Z,59.79
2024-04-19T03:32:24.015Z,60.05
2024-04-19T03:34:51.104Z,60.05
2024-04-19T03:37:17.904Z,60.25
2024-04-19T03:39:46.876Z,60.18
2024-04-19T03:42:20.171Z,60.12
2024-04-19T03:45:05.778Z,60.00
2024-04-19T03:47:34.200Z,60.36
2024-04-19T03:50:01.166Z,60.29
2024-04-19T03:52:27.936Z,60.27
2024-04-19T03:54:56.409Z,60.41
2024-04-19T03:57:26.147Z,60.57
2024-04-19T03:59:52.980Z,60.35
2024-04-19T04:02:19.844Z,60.44
2024-04-19T04:04:56.014Z,60.38
2024-04-19T04:07:22.879Z,60.40
2024-04-19T04:09:50.238Z,60.31
2024-04-19T04:12:17.168Z,60.38
2024-04-19T04:14:46.745Z,60.38
2024-04-19T04:17:14.025Z,60.28
2024-04-19T04:19:40.991Z,60.30
2024-04-19T04:22:07.882Z,60.21
2024-04-19T04:24:34.693Z,60.29
2024-04-19T04:27:02.291Z,60.30
2024-04-19T04:29:30.581Z,60.36
2024-04-19T04:32:00.360Z,60.43
2024-04-19T04:34:27.312Z,60.40
2024-04-19T04:36:54.137Z,60.53
2024-04-19T04:39:21.264Z,60.45
2024-04-19T04:41:48.060Z,60.27
2024-04-19T04:44:16.360Z,60.50
2024-04-19T04:46:43.212Z,60.32
2024-04-19T04:49:12.626Z,60.47
2024-04-19T04:51:39.440Z,60.11
2024-04-19T04:54:06.516Z,60.31
2024-04-19T04:56:33.557Z,60.31
2024-04-19T04:59:00.617Z,60.41
2024-04-19T05:01:27.438Z,60.45
2024-04-19T05:03:54.340Z,60.39
2024-04-19T05:06:23.954Z,60.29
2024-04-19T05:08:50.869Z,60.53
2024-04-19T05:11:17.734Z,60.54
2024-04-19T05:13:44.580Z,60.28
2024-04-19T05:16:11.377Z,60.50
2024-04-19T05:18:38.202Z,60.56
2024-04-19T05:21:05.353Z,60.44
2024-04-19T05:23:35.001Z,60.45
2024-04-19T05:26:03.351Z,60.57
2024-04-19T05:28:30.368Z,60.41
2024-04-19T05:30:58.636Z,60.41
2024-04-19T05:33:25.537Z,60.39
2024-04-19T05:35:52.385Z,60.27
2024-04-19T05:38:19.421Z,60.15
2024-04-19T05:40:48.884Z,60.25
2024-04-19T05:43:16.210Z,60.27
2024-04-19T05:45:43.429Z,59.94
2024-04-19T05:48:10.431Z,60.02
2024-04-19T05:50:37.382Z,59.98
2024-04-19T05:53:04.496Z,59.73
2024-04-19T05:55:31.498Z,59.84
2024-04-19T05:58:01.425Z,59.74
2024-04-19T06:00:28.415Z,59.49
2024-04-19T06:02:55.658Z,59.56
2024-04-19T06:05:22.519Z,59.54
2024-04-19T06:07:49.358Z,59.73
2024-04-19T06:10:16.401Z,59.49
2024-04-19T06:12:43.541Z,59.58
2024-04-19T06:15:12.983Z,59.70
2024-04-19T06:17:39.875Z,59.51
2024-04-19T06:20:07.471Z,59.42
2024-04-19T06:22:34.611Z,59.24
2024-04-19T06:25:01.489Z,59.64
2024-04-19T06:27:28.352Z,59.65
2024-04-19T06:29:55.196Z,59.45
2024-04-19T06:32:24.603Z,59.77
2024-04-19T06:34:51.826Z,59.41
2024-04-19T06:37:18.714Z,59.38
2024-04-19T06:39:54.626Z,59.07
2024-04-19T06:42:29.320Z,59.11
2024-04-19T06:44:56.127Z,59.10
2024-04-19T06:47:25.676Z,59.23
2024-04-19T06:49:52.301Z,59.05
2024-04-19T06:52:19.131Z,58.97
2024-04-19T06:54:46.059Z,59.10
2024-04-19T06:57:13.100Z,59.06
2024-04-19T06:59:41.619Z,58.81
2024-04-19T07:02:08.524Z,58.80
2024-04-19T07:04:38.326Z,58.88
2024-04-19T07:07:05.271Z,58.57
2024-04-19T07:09:32.118Z,58.40
2024-04-19T07:11:59.046Z,58.65
2024-04-19T07:14:26.009Z,58.29
2024-04-19T07:16:52.857Z,58.45
2024-04-19T07:19:19.792Z,57.66
2024-04-19T07:21:49.225Z,57.60
2024-04-19T07:24:16.077Z,57.44
2024-04-19T07:26:42.876Z,57.47
2024-04-19T07:29:09.765Z,57.55
2024-04-19T07:31:36.666Z,57.49
2024-04-19T07:34:03.476Z,56.36
2024-04-19T07:36:30.316Z,56.89
2024-04-19T07:38:59.945Z,56.81
2024-04-19T07:41:27.502Z,56.73
2024-04-19T07:43:59.597Z,57.01
2024-04-19T07:46:28.250Z,56.58
2024-04-19T07:48:55.188Z,56.85
2024-04-19T07:51:22.065Z,56.59
2024-04-19T07:53:48.883Z,57.08
2024-04-19T07:56:18.268Z,57.18
2024-04-19T07:58:45.331Z,57.35
2024-04-19T08:01:12.645Z,57.29
2024-04-19T08:03:40.591Z,57.49
2024-04-19T08:06:08.018Z,57.45
2024-04-19T08:08:35.054Z,57.36
2024-04-19T08:11:03.057Z,56.75
2024-04-19T08:13:32.603Z,56.56
2024-04-19T08:16:00.019Z,56.40
2024-04-19T08:18:26.949Z,56.84
2024-04-19T08:20:53.744Z,57.28
2024-04-19T08:23:20.549Z,57.41
2024-04-19T08:25:47.315Z,57.62
2024-04-19T08:28:14.147Z,57.65
2024-04-19T08:30:43.623Z,57.09
2024-04-19T08:33:10.512Z,57.32
2024-04-19T08:35:41.106Z,57.27
2024-04-19T08:38:08.258Z,55.83
2024-04-19T08:40:41.882Z,56.08
2024-04-19T08:43:12.068Z,56.95
2024-04-19T08:45:39.405Z,56.67
2024-04-19T08:48:09.439Z,56.59
2024-04-19T08:50:37.799Z,56.07
2024-04-19T08:53:15.550Z,56.06
2024-04-19T08:55:44.716Z,56.14
2024-04-19T08:58:13.673Z,56.54
2024-04-19T09:00:41.598Z,56.81
2024-04-19T09:03:12.348Z,56.55
2024-04-19T09:05:39.318Z,57.20
2024-04-19T09:08:07.673Z,56.86
2024-04-19T09:10:34.901Z,56.24
2024-04-19T09:13:02.390Z,56.84
2024-04-19T09:15:30.263Z,56.53
2024-04-19T09:17:57.283Z,56.18
2024-04-19T09:20:26.804Z,55.90
2024-04-19T09:22:54.670Z,55.17
2024-04-19T09:25:21.566Z,55.62
2024-04-19T09:27:49.591Z,56.38
2024-04-19T09:30:17.756Z,56.45
2024-04-19T09:32:46.638Z,55.33
2024-04-19T09:35:13.577Z,55.01
2024-04-19T09:37:45.426Z,54.44
2024-04-19T09:40:12.988Z,54.38
2024-04-19T09:42:41.000Z,54.33
2024-04-19T09:45:10.289Z,54.39
2024-04-19T09:47:40.024Z,54.64
2024-04-19T09:50:12.050Z,53.14
2024-04-19T09:52:43.991Z,53.47
2024-04-19T09:55:18.464Z,53.40
2024-04-19T09:57:47.777Z,53.95
2024-04-19T10:00:18.707Z,53.70
2024-04-19T10:02:45.947Z,53.87
2024-04-19T10:05:13.208Z,53.12
2024-04-19T10:07:43.334Z,53.18
2024-04-19T10:10:10.440Z,53.33
2024-04-19T10:12:41.675Z,53.80
2024-04-19T10:15:11.738Z,54.08
2024-04-19T10:17:39.072Z,53.56
2024-04-19T10:20:07.031Z,54.05
2024-04-19T10:22:33.853Z,52.99
2024-04-19T10:25:03.836Z,52.82
2024-04-19T10:27:33.148Z,52.79
2024-04-19T10:30:00.872Z,52.14
2024-04-19T10:32:29.400Z,50.47
2024-04-19T10:34:56.269Z,51.03
2024-04-19T10:37:23.172Z,51.41
2024-04-19T10:39:50.052Z,50.47
2024-04-19T10:42:22.456Z,49.45
2024-04-19T10:44:50.130Z,49.35
2024-04-19T10:47:17.733Z,49.17
2024-04-19T10:49:45.690Z,49.46
2024-04-19T10:52:12.598Z,48.16
2024-04-19T10:54:39.996Z,48.24
2024-04-19T10:57:06.984Z,47.54
2024-04-19T10:59:36.954Z,46.01
2024-04-19T11:02:04.368Z,45.69
2024-04-19T11:04:31.543Z,45.84
2024-04-19T11:06:59.158Z,44.36
2024-04-19T11:09:26.676Z,44.54
2024-04-19T11:11:53.691Z,42.86
2024-04-19T11:14:23.028Z,41.62
2024-04-19T11:16:52.435Z,42.57
2024-04-19T11:19:19.617Z,43.21
2024-04-19T11:21:47.178Z,44.14
2024-04-19T11:24:14.245Z,44.65
2024-04-19T11:26:41.925Z,44.62
2024-04-19T11:29:11.501Z,43.49
2024-04-19T11:31:40.525Z,43.67
2024-04-19T11:34:10.296Z,43.48
2024-04-19T11:36:37.400Z,43.36
2024-04-19T11:39:04.628Z,43.46
2024-04-19T11:41:31.792Z,43.60
2024-04-19T11:44:00.215Z,43.44
2024-04-19T11:46:29.973Z,43.73
2024-04-19T11:48:57.772Z,43.67
2024-04-19T11:51:27.474Z,43.89
2024-04-19T11:53:54.413Z,42.40
2024-04-19T11:56:21.631Z,42.85
2024-04-19T11:58:53.554Z,42.32
2024-04-19T12:01:20.934Z,41.85
2024-04-19T12:03:48.082Z,41.87
2024-04-19T12:06:15.764Z,40.80
2024-04-19T12:08:45.607Z,41.58
2024-04-19T12:11:12.590Z,41.88
2024-04-19T12:14:32.095Z,42.31
2024-04-19T12:18:56.294Z,42.34
2024-04-19T12:21:24.165Z,42.64
2024-04-19T12:23:54.773Z,42.42
2024-04-19T12:26:23.046Z,43.19
2024-04-19T12:28:54.757Z,42.93
2024-04-19T12:31:24.687Z,43.48
2024-04-19T12:33:52.014Z,43.39
2024-04-19T12:36:18.964Z,43.25
2024-04-19T12:38:45.977Z,42.53
2024-04-19T12:41:15.849Z,42.35
2024-04-19T12:43:42.926Z,42.78
2024-04-19T12:46:09.853Z,42.46
2024-04-19T12:48:37.147Z,42.27
2024-04-19T12:51:04.712Z,41.48
2024-04-19T12:53:31.589Z,40.77
2024-04-19T12:55:59.344Z,40.67
2024-04-19T12:58:29.063Z,41.01
2024-04-19T13:01:01.680Z,41.66
2024-04-19T13:03:28.712Z,41.02
2024-04-19T13:05:56.296Z,41.34
2024-04-19T13:08:23.105Z,41.96
2024-04-19T13:10:49.957Z,42.95
2024-04-19T13:13:17.532Z,42.86
2024-04-19T13:15:47.323Z,42.81
2024-04-19T13:18:14.846Z,43.31
2024-04-19T13:20:41.734Z,43.43
2024-04-19T13:23:09.463Z,43.69
2024-04-19T13:25:36.353Z,43.82
2024-04-19T13:28:03.234Z,43.93
2024-04-19T13:30:30.924Z,43.56
2024-04-19T13:33:00.473Z,43.98
2024-04-19T13:35:27.369Z,43.46
2024-04-19T13:37:54.132Z,43.15
2024-04-19T13:40:21.171Z,43.07
2024-04-19T13:42:48.161Z,43.87
2024-04-19T13:45:15.142Z,44.35
2024-04-19T13:47:42.077Z,44.36
2024-04-19T13:50:11.572Z,44.02
2024-04-19T13:52:38.372Z,44.30
2024-04-19T13:55:07.016Z,44.48
2024-04-19T13:57:34.148Z,44.71
2024-04-19T14:00:01.180Z,44.83
2024-04-19T14:02:28.363Z,45.99
2024-04-19T14:04:55.300Z,45.75
2024-04-19T14:07:25.170Z,46.29
2024-04-19T14:09:52.074Z,46.08
2024-04-19T14:12:18.875Z,46.29
2024-04-19T14:14:45.812Z,46.24
2024-04-19T14:17:12.646Z,46.84
2024-04-19T14:19:39.510Z,47.19
2024-04-19T14:22:06.502Z,47.54
2024-04-19T14:24:35.986Z,47.54
2024-04-19T14:27:02.744Z,48.17
2024-04-19T14:29:29.572Z,48.44
2024-04-19T14:31:56.402Z,48.50
2024-04-19T14:34:23.290Z,49.02
2024-04-19T14:36:50.192Z,49.19
2024-04-19T14:39:17.031Z,49.26
2024-04-19T14:41:47.899Z,48.98
2024-04-19T14:44:14.987Z,49.30
2024-04-19T14:46:41.890Z,49.80
2024-04-19T14:49:08.973Z,49.38
2024-04-19T14:51:35.973Z,49.64
2024-04-19T14:54:02.771Z,49.31
2024-04-19T14:56:29.701Z,49.47
2024-04-19T14:59:07.004Z,50.12
2024-04-19T15:01:41.370Z,50.32
2024-04-19T15:04:09.844Z,50.69
2024-04-19T15:06:40.586Z,51.09
2024-04-19T15:09:08.612Z,51.53
2024-04-19T15:11:36.516Z,51.71
2024-04-19T15:14:06.344Z,52.25
2024-04-19T15:16:33.628Z,52.27
2024-04-19T15:19:00.628Z,52.66
2024-04-19T15:21:28.405Z,52.73
2024-04-19T15:23:55.664Z,52.94
2024-04-19T15:26:22.510Z,53.80
2024-04-19T15:28:49.316Z,54.03
2024-04-19T15:31:20.756Z,53.93
2024-04-19T15:33:47.725Z,54.69
2024-04-19T15:36:14.612Z,54.43
2024-04-19T15:38:43.593Z,54.79
2024-04-19T15:41:12.568Z,54.88
2024-04-19T15:43:39.785Z,55.32
2024-04-19T15:46:06.795Z,55.65
2024-04-19T15:48:36.280Z,55.73
2024-04-19T15:51:06.431Z,56.14
2024-04-19T15:53:33.285Z,56.19
2024-04-19T15:56:00.112Z,56.59
2024-04-19T15:58:29.670Z,56.58
2024-04-19T16:00:56.468Z,56.19
2024-04-19T16:03:23.596Z,56.86
2024-04-19T16:05:53.089Z,56.81
2024-04-19T16:08:20.119Z,56.88
2024-04-19T16:10:46.994Z,57.14
2024-04-19T16:13:13.968Z,57.67
2024-04-19T16:15:42.217Z,57.50
2024-04-19T16:18:09.411Z,57.70
2024-04-19T16:20:37.163Z,58.23
2024-04-19T16:23:06.732Z,58.13
2024-04-19T16:25:33.649Z,58.53
2024-04-19T16:28:00.604Z,58.72
2024-04-19T16:30:27.664Z,58.52
2024-04-19T16:32:57.044Z,58.71
2024-04-19T16:35:24.433Z,58.36
2024-04-19T16:37:51.245Z,58.68
2024-04-19T16:40:20.758Z,58.81
2024-04-19T16:42:47.575Z,59.02
2024-04-19T16:45:14.623Z,59.00
2024-04-19T16:47:42.421Z,58.90
2024-04-19T16:50:09.557Z,59.52
2024-04-19T16:52:36.390Z,59.33
2024-04-19T16:55:03.471Z,59.26
2024-04-19T16:57:32.907Z,59.61
2024-04-19T16:59:59.791Z,59.81
2024-04-19T17:02:26.901Z,59.69
2024-04-19T17:04:56.182Z,59.53
2024-04-19T17:07:23.315Z,59.81
2024-04-19T17:09:50.501Z,59.46
2024-04-19T17:12:17.428Z,59.28
2024-04-19T17:14:46.933Z,59.35
2024-04-19T17:17:13.729Z,59.22
2024-04-19T17:19:40.625Z,59.42
2024-04-19T17:22:07.689Z,59.47
2024-04-19T17:28:26.766Z,59.60
2024-04-19T17:30:57.291Z,59.20
2024-04-19T17:33:24.583Z,59.51
2024-04-19T17:35:52.355Z,60.10
2024-04-19T17:38:19.161Z,59.72
2024-04-19T17:40:48.402Z,59.81
2024-04-19T17:43:15.920Z,60.04
2024-04-19T17:45:43.045Z,59.96
2024-04-19T17:48:14.930Z,59.92
2024-04-19T17:50:41.948Z,59.70
2024-04-19T17:53:08.717Z,59.79
2024-04-19T17:55:35.768Z,59.88
2024-04-19T17:58:02.682Z,59.75
2024-04-19T18:00:29.719Z,59.87
2024-04-19T18:02:56.555Z,59.81
2024-04-19T18:05:26.083Z,59.73
2024-04-19T18:07:52.848Z,59.74
2024-04-19T18:10:22.689Z,59.76
2024-04-19T18:12:49.563Z,59.61
2024-04-19T18:15:16.534Z,60.12
2024-04-19T18:17:43.631Z,60.32
2024-04-19T18:20:10.962Z,60.35
2024-04-19T18:22:40.335Z,60.45
2024-04-19T18:25:08.406Z,60.21
2024-04-19T18:27:36.385Z,60.68
2024-04-19T18:30:03.774Z,60.53
2024-04-19T18:32:30.844Z,60.50
2024-04-19T18:34:59.498Z,60.70
2024-04-19T18:37:27.522Z,60.62
2024-04-19T18:39:58.259Z,60.89
2024-04-19T18:42:25.114Z,60.59
2024-04-19T18:44:52.182Z,61.17
2024-04-19T18:47:20.022Z,60.76
2024-04-19T18:49:47.058Z,61.05
2024-04-19T18:52:14.207Z,61.02
2024-04-19T18:54:41.092Z,61.06
2024-04-19T18:57:11.113Z,60.95
2024-04-19T18:59:37.921Z,61.46
2024-04-19T19:02:05.570Z,60.88
2024-04-19T19:04:36.342Z,61.25
2024-04-19T19:07:03.585Z,61.14
2024-04-19T19:09:30.970Z,60.99
2024-04-19T19:11:57.910Z,61.00
2024-04-19T19:14:31.129Z,61.04
2024-04-19T19:16:59.188Z,61.33
2024-04-19T19:19:27.554Z,60.90
2024-04-19T19:21:54.609Z,61.17
2024-04-19T19:24:21.516Z,60.89
2024-04-19T19:26:49.220Z,60.95
2024-04-19T19:29:22.500Z,60.86
2024-04-19T19:31:52.722Z,60.74
2024-04-19T19:34:19.514Z,61.04
2024-04-19T19:36:48.791Z,60.85
2024-04-19T19:39:15.644Z,60.78
2024-04-19T19:41:42.520Z,60.87
2024-04-19T19:44:11.167Z,61.07
2024-04-19T19:46:37.968Z,60.80
2024-04-19T19:49:07.578Z,60.77
2024-04-19T19:51:34.916Z,60.78
2024-04-19T19:54:03.815Z,60.43
2024-04-19T19:56:30.614Z,60.60
2024-04-19T19:58:57.427Z,60.65
2024-04-19T20:01:42.938Z,60.62
2024-04-19T20:04:31.196Z,60.77
2024-04-19T20:06:58.436Z,60.53
2024-04-19T20:09:25.427Z,60.45
2024-04-19T20:11:53.084Z,60.71
2024-04-19T20:14:19.870Z,60.60
2024-04-19T20:16:46.982Z,60.79
2024-04-19T20:19:16.445Z,60.79
2024-04-19T20:21:43.590Z,60.43
2024-04-19T20:24:10.439Z,60.84
2024-04-19T20:26:37.263Z,60.64
2024-04-19T20:29:04.411Z,60.49
2024-04-19T20:31:31.383Z,60.49
2024-04-19T20:33:58.265Z,60.54
2024-04-19T20:36:27.842Z,60.48
2024-04-19T20:38:54.496Z,60.49
2024-04-19T20:41:21.446Z,60.46
2024-04-19T20:43:48.306Z,60.42
2024-04-19T20:46:15.339Z,60.53
2024-04-19T20:48:42.344Z,60.52
2024-04-19T20:51:09.220Z,60.34
2024-04-19T20:53:38.648Z,60.23
2024-04-19T20:56:08.998Z,60.44
2024-04-19T20:58:37.464Z,60.42
2024-04-19T21:01:06.845Z,60.28
2024-04-19T21:03:33.768Z,60.41
2024-04-19T21:06:00.800Z,60.37
2024-04-19T21:08:27.684Z,60.40
2024-04-19T21:10:57.219Z,60.54
2024-04-19T21:13:23.894Z,60.53
2024-04-19T21:16:09.022Z,60.76
2024-04-19T21:18:42.399Z,60.69
2024-04-19T21:24:41.626Z,61.01
2024-04-19T21:27:11.779Z,61.12
2024-04-19T21:29:38.950Z,61.40
2024-04-19T21:32:06.862Z,60.98
2024-04-19T21:34:33.754Z,61.30
2024-04-19T21:37:00.682Z,61.22
2024-04-19T21:39:27.545Z,61.23
2024-04-19T21:41:54.565Z,61.24
2024-04-19T21:44:23.971Z,61.47
2024-04-19T21:46:51.423Z,61.10
2024-04-19T21:49:18.229Z,61.11
2024-04-19T21:51:45.038Z,60.94
2024-04-19T21:54:11.931Z,61.10
2024-04-19T21:56:38.706Z,61.04
2024-04-19T21:59:05.752Z,61.03
2024-04-19T22:01:35.764Z,61.20
2024-04-19T22:04:02.893Z,60.98
2024-04-19T22:06:29.944Z,60.98
2024-04-19T22:08:57.167Z,61.07
2024-04-19T22:11:23.983Z,60.75
2024-04-19T22:13:52.111Z,61.08
2024-04-19T22:16:18.984Z,60.90
2024-04-19T22:18:48.728Z,60.88
2024-04-19T22:21:16.537Z,60.87
2024-04-19T22:23:43.383Z,60.73
2024-04-19T22:26:10.988Z,60.69
2024-04-19T22:28:38.899Z,60.38
2024-04-19T22:31:07.043Z,60.66
2024-04-19T22:33:34.644Z,60.21
2024-04-19T22:36:09.407Z,60.21
2024-04-19T22:38:37.786Z,60.54
2024-04-19T22:41:05.285Z,60.38
2024-04-19T22:58:21.847Z,58.67
2024-04-19T23:00:48.787Z,58.57
2024-04-19T23:03:15.805Z,59.25
2024-04-19T23:05:42.607Z,59.38
2024-04-19T23:08:10.890Z,59.85
2024-04-19T23:10:37.833Z,60.36
2024-04-19T23:13:06.409Z,60.09
2024-04-19T23:15:35.979Z,60.47
2024-04-19T23:18:02.910Z,60.37
2024-04-19T23:24:52.968Z,60.53
2024-04-19T23:27:19.832Z,60.58
2024-04-19T23:29:46.663Z,60.76
2024-04-19T23:32:16.172Z,60.61
2024-04-19T23:34:42.958Z,60.83
2024-04-19T23:37:09.779Z,60.68
2024-04-19T23:39:36.798Z,60.54
2024-04-19T23:42:03.868Z,60.73
2024-04-19T23:44:30.726Z,60.76
2024-04-19T23:46:57.597Z,60.69
2024-04-19T23:49:27.198Z,61.03
2024-04-19T23:51:54.109Z,60.88
2024-04-19T23:54:20.983Z,61.10
2024-04-19T23:56:47.779Z,60.88
2024-04-19T23:59:14.764Z,60.94
